createdAt,value
2017-10-09T00:00:47.102Z,0
2017-10-09T00:01:47.808Z,0
2017-10-09T00:02:48.516Z,0
2017-10-09T00:03:49.224Z,0
2017-10-09T00:04:49.931Z,0
2017-10-09T00:05:50.640Z,0
2017-10-09T00:06:51.347Z,0
2017-10-09T00:07:52.056Z,0
2017-10-09T00:08:52.762Z,0
2017-10-09T00:09:53.469Z,0
2017-10-09T00:10:54.179Z,0
2017-10-09T00:11:54.887Z,0
2017-10-09T00:12:55.610Z,0
2017-10-09T00:13:56.318Z,0
2017-10-09T00:14:57.028Z,0
2017-10-09T00:15:57.742Z,0
2017-10-09T00:16:58.448Z,0
2017-10-09T00:17:59.153Z,0
2017-10-09T00:18:59.859Z,0
2017-10-09T00:20:00.569Z,0
2017-10-09T00:21:01.277Z,0
2017-10-09T00:22:01.985Z,0
2017-10-09T00:23:02.693Z,0
2017-10-09T00:24:03.413Z,0
2017-10-09T00:25:04.132Z,0
2017-10-09T00:26:04.837Z,0
2017-10-09T00:27:05.546Z,0
2017-10-09T00:28:06.253Z,0
2017-10-09T00:29:06.976Z,0
2017-10-09T00:30:07.700Z,0
2017-10-09T00:31:08.407Z,0
2017-10-09T00:32:09.128Z,0
2017-10-09T00:33:09.834Z,0
2017-10-09T00:34:10.543Z,0
2017-10-09T00:35:11.253Z,0
2017-10-09T00:36:11.962Z,0
2017-10-09T00:37:12.669Z,0
2017-10-09T00:38:13.376Z,0
2017-10-09T00:39:14.083Z,0
2017-10-09T00:40:14.810Z,0
2017-10-09T00:41:15.516Z,0
2017-10-09T00:42:16.234Z,0
2017-10-09T00:43:16.937Z,0
2017-10-09T00:44:17.651Z,0
2017-10-09T00:45:18.353Z,0
2017-10-09T00:46:19.062Z,0
2017-10-09T00:47:19.770Z,0
2017-10-09T00:48:20.478Z,0
2017-10-09T00:49:21.188Z,0
2017-10-09T00:50:21.894Z,0
2017-10-09T00:51:22.620Z,0
2017-10-09T00:52:23.311Z,0
2017-10-09T00:53:24.031Z,0
2017-10-09T00:54:24.739Z,0
2017-10-09T00:55:25.446Z,0
2017-10-09T00:56:26.155Z,0
2017-10-09T00:57:26.863Z,0
2017-10-09T00:58:27.573Z,0
2017-10-09T00:59:28.293Z,0
2017-10-09T01:00:29.001Z,0
2017-10-09T01:01:29.709Z,0
2017-10-09T01:02:30.416Z,0
2017-10-09T01:03:31.124Z,0
2017-10-09T01:04:31.831Z,0
2017-10-09T01:05:32.538Z,0
2017-10-09T01:06:33.247Z,0
2017-10-09T01:07:33.956Z,0
2017-10-09T01:08:34.663Z,0
2017-10-09T01:09:35.371Z,0
2017-10-09T01:10:36.080Z,0
2017-10-09T01:11:36.787Z,0
2017-10-09T01:12:37.496Z,0
2017-10-09T01:13:38.205Z,0
2017-10-09T01:14:38.911Z,0
2017-10-09T01:15:39.619Z,0
2017-10-09T01:16:40.327Z,0
2017-10-09T01:17:41.034Z,0
2017-10-09T01:18:41.758Z,0
2017-10-09T01:19:42.466Z,0
2017-10-09T01:20:43.177Z,0
2017-10-09T01:21:43.883Z,0
2017-10-09T01:22:44.592Z,0
2017-10-09T01:23:45.303Z,0
2017-10-09T01:24:46.010Z,0
2017-10-09T01:25:46.717Z,0
2017-10-09T01:26:47.426Z,0
2017-10-09T01:27:48.147Z,0
2017-10-09T01:28:48.854Z,0
2017-10-09T01:29:49.564Z,0
2017-10-09T01:30:50.270Z,0
2017-10-09T01:31:50.992Z,0
2017-10-09T01:32:51.702Z,0
2017-10-09T01:33:52.408Z,0
2017-10-09T01:34:53.116Z,0
2017-10-09T01:35:53.824Z,0
2017-10-09T01:36:54.532Z,0
2017-10-09T01:37:55.241Z,0
2017-10-09T01:38:55.948Z,0
2017-10-09T01:39:56.674Z,0
2017-10-09T01:40:57.384Z,0
2017-10-09T01:41:58.088Z,0
2017-10-09T01:42:58.796Z,0
2017-10-09T01:43:59.504Z,0
2017-10-09T01:45:00.217Z,0
2017-10-09T01:46:00.920Z,0
2017-10-09T01:47:01.628Z,0
2017-10-09T01:48:02.337Z,0
2017-10-09T01:49:03.044Z,0
2017-10-09T01:50:03.766Z,0
2017-10-09T01:51:04.472Z,0
2017-10-09T01:52:05.179Z,0
2017-10-09T01:53:05.899Z,0
2017-10-09T01:54:06.609Z,0
2017-10-09T01:55:07.316Z,0
2017-10-09T01:56:08.025Z,0
2017-10-09T01:57:08.748Z,0
2017-10-09T01:58:09.458Z,0
2017-10-09T01:59:10.168Z,0
2017-10-09T02:00:10.879Z,0
2017-10-09T02:01:11.599Z,0
2017-10-09T02:02:12.306Z,0
2017-10-09T02:03:13.012Z,0
2017-10-09T02:04:13.733Z,0
2017-10-09T02:05:14.458Z,0
2017-10-09T02:06:15.171Z,0
2017-10-09T02:07:15.877Z,0
2017-10-09T02:08:16.585Z,0
2017-10-09T02:09:17.307Z,0
2017-10-09T02:10:18.017Z,0
2017-10-09T02:11:18.727Z,0
2017-10-09T02:12:19.435Z,0
2017-10-09T02:13:20.143Z,0
2017-10-09T02:14:20.861Z,0
2017-10-09T02:15:21.584Z,0
2017-10-09T02:16:22.294Z,0
2017-10-09T02:17:23.004Z,0
2017-10-09T02:18:23.712Z,0
2017-10-09T02:19:24.421Z,0
2017-10-09T02:20:25.128Z,0
2017-10-09T02:21:25.837Z,0
2017-10-09T02:22:26.545Z,0
2017-10-09T02:23:27.253Z,0
2017-10-09T02:24:27.959Z,0
2017-10-09T02:25:28.681Z,0
2017-10-09T02:26:29.388Z,0
2017-10-09T02:27:30.096Z,0
2017-10-09T02:28:30.816Z,0
2017-10-09T02:29:31.524Z,0
2017-10-09T02:30:32.252Z,0
2017-10-09T02:31:32.958Z,0
2017-10-09T02:32:33.666Z,0
2017-10-09T02:33:34.387Z,0
2017-10-09T02:34:35.108Z,0
2017-10-09T02:35:35.814Z,0
2017-10-09T02:36:36.521Z,0
2017-10-09T02:37:37.228Z,0
2017-10-09T02:38:37.935Z,0
2017-10-09T02:39:38.656Z,0
2017-10-09T02:40:39.365Z,0
2017-10-09T02:41:40.088Z,0
2017-10-09T02:42:40.791Z,0
2017-10-09T02:43:41.513Z,0
2017-10-09T02:44:42.221Z,0
2017-10-09T02:45:42.930Z,0
2017-10-09T02:46:43.639Z,0
2017-10-09T02:47:44.346Z,0
2017-10-09T02:48:45.057Z,0
2017-10-09T02:49:45.763Z,0
2017-10-09T02:50:46.486Z,0
2017-10-09T02:51:47.210Z,0
2017-10-09T02:52:47.916Z,0
2017-10-09T02:53:48.623Z,0
2017-10-09T02:54:49.345Z,0
2017-10-09T02:55:50.053Z,0
2017-10-09T02:56:50.760Z,0
2017-10-09T02:57:51.466Z,0
2017-10-09T02:58:52.174Z,0
2017-10-09T02:59:52.897Z,0
2017-10-09T03:00:53.607Z,0
2017-10-09T03:01:54.316Z,0
2017-10-09T03:02:55.026Z,0
2017-10-09T03:03:55.734Z,0
2017-10-09T03:04:56.443Z,0
2017-10-09T03:05:57.150Z,0
2017-10-09T03:06:57.859Z,0
2017-10-09T03:07:58.579Z,0
2017-10-09T03:08:59.286Z,0
2017-10-09T03:09:59.994Z,0
2017-10-09T03:11:00.701Z,0
2017-10-09T03:12:01.419Z,0
2017-10-09T03:13:02.128Z,0
2017-10-09T03:14:02.836Z,0
2017-10-09T03:15:03.560Z,0
2017-10-09T03:16:04.269Z,0
2017-10-09T03:17:04.991Z,0
2017-10-09T03:18:05.698Z,0
2017-10-09T03:19:06.416Z,0
2017-10-09T03:20:07.140Z,0
2017-10-09T03:21:07.848Z,0
2017-10-09T03:22:08.570Z,0
2017-10-09T03:23:09.275Z,0
2017-10-09T03:24:09.983Z,0
2017-10-09T03:25:10.692Z,0
2017-10-09T03:26:11.399Z,0
2017-10-09T03:27:12.108Z,0
2017-10-09T03:28:12.816Z,0
2017-10-09T03:29:13.524Z,0
2017-10-09T03:30:14.230Z,0
2017-10-09T03:31:14.938Z,0
2017-10-09T03:32:15.641Z,0
2017-10-09T03:33:16.349Z,0
2017-10-09T03:34:17.055Z,0
2017-10-09T03:35:17.761Z,0
2017-10-09T03:36:18.484Z,0
2017-10-09T03:37:19.212Z,0
2017-10-09T03:38:19.921Z,0
2017-10-09T03:39:20.631Z,0
2017-10-09T03:40:21.342Z,0
2017-10-09T03:41:22.047Z,0
2017-10-09T03:42:22.768Z,0
2017-10-09T03:43:23.475Z,0
2017-10-09T03:44:24.184Z,0
2017-10-09T03:45:24.900Z,0
2017-10-09T03:46:25.622Z,0
2017-10-09T03:47:26.331Z,0
2017-10-09T03:48:27.051Z,0
2017-10-09T03:49:27.757Z,0
2017-10-09T03:50:28.463Z,0
2017-10-09T03:51:29.170Z,0
2017-10-09T03:52:29.876Z,0
2017-10-09T03:53:30.585Z,0
2017-10-09T03:54:31.293Z,0
2017-10-09T03:55:32.012Z,0
2017-10-09T03:56:32.720Z,0
2017-10-09T03:57:33.441Z,0
2017-10-09T03:58:34.148Z,0
2017-10-09T03:59:34.855Z,0
2017-10-09T04:00:35.564Z,0
2017-10-09T04:01:36.271Z,0
2017-10-09T04:02:36.993Z,0
2017-10-09T04:03:37.702Z,0
2017-10-09T04:04:38.409Z,0
2017-10-09T04:05:39.129Z,0
2017-10-09T04:06:39.839Z,0
2017-10-09T04:07:40.547Z,0
2017-10-09T04:08:41.254Z,0
2017-10-09T04:09:41.978Z,0
2017-10-09T04:10:42.681Z,0
2017-10-09T04:11:43.389Z,0
2017-10-09T04:12:44.097Z,0
2017-10-09T04:13:44.804Z,0
2017-10-09T04:14:45.512Z,0
2017-10-09T04:15:46.220Z,0
2017-10-09T04:16:46.926Z,0
2017-10-09T04:17:47.648Z,0
2017-10-09T04:18:48.355Z,0
2017-10-09T04:19:49.063Z,0
2017-10-09T04:20:49.772Z,0
2017-10-09T04:21:50.479Z,0
2017-10-09T04:22:51.188Z,0
2017-10-09T04:23:51.896Z,0
2017-10-09T04:24:52.603Z,0
2017-10-09T04:25:53.311Z,0
2017-10-09T04:26:54.019Z,0
2017-10-09T04:27:54.738Z,0
2017-10-09T04:28:55.445Z,0
2017-10-09T04:29:56.153Z,0
2017-10-09T04:30:56.861Z,0
2017-10-09T04:31:57.580Z,0
2017-10-09T04:32:58.289Z,0
2017-10-09T04:33:59.011Z,0
2017-10-09T04:34:59.718Z,0
2017-10-09T04:36:00.426Z,0
2017-10-09T04:37:01.133Z,0
2017-10-09T04:38:01.855Z,0
2017-10-09T04:39:02.575Z,0
2017-10-09T04:40:03.285Z,0
2017-10-09T04:41:03.988Z,0
2017-10-09T04:42:04.695Z,0
2017-10-09T04:43:05.402Z,0
2017-10-09T04:44:06.113Z,0
2017-10-09T04:45:06.833Z,0
2017-10-09T04:46:07.553Z,0
2017-10-09T04:47:08.260Z,0
2017-10-09T04:48:08.967Z,0
2017-10-09T04:49:09.688Z,0
2017-10-09T04:50:10.400Z,0
2017-10-09T04:51:11.101Z,0
2017-10-09T04:52:11.809Z,0
2017-10-09T04:53:12.530Z,0
2017-10-09T04:54:13.241Z,0
2017-10-09T04:55:13.959Z,0
2017-10-09T04:56:14.666Z,0
2017-10-09T04:57:15.373Z,0
2017-10-09T04:58:16.081Z,0
2017-10-09T04:59:16.799Z,0
2017-10-09T05:00:17.507Z,0
2017-10-09T05:01:18.217Z,0
2017-10-09T05:02:18.925Z,0
2017-10-09T05:03:19.633Z,0
2017-10-09T05:04:20.354Z,0
2017-10-09T05:05:21.059Z,0
2017-10-09T05:06:21.765Z,0
2017-10-09T05:07:22.475Z,0
2017-10-09T05:08:23.183Z,0
2017-10-09T05:09:23.891Z,0
2017-10-09T05:10:24.597Z,0
2017-10-09T05:11:25.319Z,4
2017-10-09T05:12:26.030Z,0
2017-10-09T05:13:26.737Z,0
2017-10-09T05:14:27.460Z,4
2017-10-09T05:15:28.167Z,0
2017-10-09T05:16:28.887Z,4
2017-10-09T05:17:29.594Z,4
2017-10-09T05:18:30.317Z,4
2017-10-09T05:19:31.024Z,4
2017-10-09T05:20:31.732Z,4
2017-10-09T05:21:32.440Z,8
2017-10-09T05:22:33.148Z,12
2017-10-09T05:23:33.855Z,12
2017-10-09T05:24:34.563Z,12
2017-10-09T05:25:35.271Z,16
2017-10-09T05:26:35.979Z,16
2017-10-09T05:27:36.687Z,24
2017-10-09T05:28:37.397Z,24
2017-10-09T05:29:38.118Z,32
2017-10-09T05:30:38.842Z,36
2017-10-09T05:31:39.565Z,40
2017-10-09T05:32:40.283Z,48
2017-10-09T05:33:41.006Z,56
2017-10-09T05:34:41.727Z,64
2017-10-09T05:35:42.436Z,72
2017-10-09T05:36:43.144Z,80
2017-10-09T05:37:43.853Z,92
2017-10-09T05:38:44.565Z,104
2017-10-09T05:39:45.287Z,116
2017-10-09T05:40:46.002Z,136
2017-10-09T05:41:46.720Z,156
2017-10-09T05:42:47.442Z,172
2017-10-09T05:43:48.151Z,196
2017-10-09T05:44:48.861Z,228
2017-10-09T05:45:49.574Z,256
2017-10-09T05:46:50.285Z,284
2017-10-09T05:47:50.996Z,316
2017-10-09T05:48:51.708Z,348
2017-10-09T05:49:52.420Z,380
2017-10-09T05:50:53.144Z,412
2017-10-09T05:51:53.854Z,440
2017-10-09T05:52:54.566Z,472
2017-10-09T05:53:55.277Z,504
2017-10-09T05:54:56.003Z,532
2017-10-09T05:55:56.714Z,556
2017-10-09T05:56:57.427Z,576
2017-10-09T05:57:58.139Z,600
2017-10-09T05:58:58.851Z,624
2017-10-09T05:59:59.576Z,652
2017-10-09T06:01:00.288Z,672
2017-10-09T06:02:01.012Z,688
2017-10-09T06:03:01.724Z,704
2017-10-09T06:04:02.434Z,732
2017-10-09T06:05:03.163Z,768
2017-10-09T06:06:03.869Z,808
2017-10-09T06:07:04.594Z,856
2017-10-09T06:08:05.304Z,908
2017-10-09T06:09:06.031Z,972
2017-10-09T06:10:06.757Z,1052
2017-10-09T06:11:07.470Z,1136
2017-10-09T06:12:08.183Z,1200
2017-10-09T06:13:08.897Z,1256
2017-10-09T06:14:09.623Z,1304
2017-10-09T06:15:10.338Z,1332
2017-10-09T06:16:11.051Z,1356
2017-10-09T06:17:11.777Z,1380
2017-10-09T06:18:12.490Z,1436
2017-10-09T06:19:13.202Z,1548
2017-10-09T06:20:13.913Z,1672
2017-10-09T06:21:14.627Z,1780
2017-10-09T06:22:15.342Z,2008
2017-10-09T06:23:16.055Z,2392
2017-10-09T06:24:16.782Z,2496
2017-10-09T06:25:17.508Z,2480
2017-10-09T06:26:18.237Z,2580
2017-10-09T06:27:18.962Z,2464
2017-10-09T06:28:19.678Z,2360
2017-10-09T06:29:20.402Z,2252
2017-10-09T06:30:21.116Z,2176
2017-10-09T06:31:22.129Z,2212
2017-10-09T06:32:22.844Z,2192
2017-10-09T06:33:23.558Z,2052
2017-10-09T06:34:24.271Z,1960
2017-10-09T06:35:25.000Z,1928
2017-10-09T06:36:25.725Z,1880
2017-10-09T06:37:26.439Z,1868
2017-10-09T06:38:27.152Z,1888
2017-10-09T06:39:27.868Z,1940
2017-10-09T06:40:28.582Z,1984
2017-10-09T06:41:29.295Z,2036
2017-10-09T06:42:30.009Z,2076
2017-10-09T06:43:30.722Z,2124
2017-10-09T06:44:31.437Z,2204
2017-10-09T06:45:32.150Z,2340
2017-10-09T06:46:32.872Z,2484
2017-10-09T06:47:33.577Z,2592
2017-10-09T06:48:34.304Z,2628
2017-10-09T06:49:35.019Z,2596
2017-10-09T06:50:35.747Z,2504
2017-10-09T06:51:36.461Z,2436
2017-10-09T06:52:37.174Z,2428
2017-10-09T06:53:37.887Z,2480
2017-10-09T06:54:38.600Z,2560
2017-10-09T06:55:39.313Z,2648
2017-10-09T06:56:40.038Z,2740
2017-10-09T06:57:40.752Z,2852
2017-10-09T06:58:41.466Z,2972
2017-10-09T06:59:42.178Z,3112
2017-10-09T07:00:42.893Z,3268
2017-10-09T07:01:43.620Z,3460
2017-10-09T07:02:44.337Z,3660
2017-10-09T07:03:45.069Z,3856
2017-10-09T07:04:45.781Z,4032
2017-10-09T07:05:46.494Z,4140
2017-10-09T07:06:47.209Z,4220
2017-10-09T07:07:47.925Z,4300
2017-10-09T07:08:48.639Z,4360
2017-10-09T07:09:49.354Z,4588
2017-10-09T07:10:50.085Z,4448
2017-10-09T07:11:50.801Z,4440
2017-10-09T07:12:51.518Z,4440
2017-10-09T07:13:52.234Z,4468
2017-10-09T07:14:52.949Z,4524
2017-10-09T07:15:53.664Z,4552
2017-10-09T07:16:54.381Z,4588
2017-10-09T07:17:55.099Z,4756
2017-10-09T07:18:55.830Z,4736
2017-10-09T07:19:56.546Z,4556
2017-10-09T07:20:57.261Z,4488
2017-10-09T07:21:57.977Z,4444
2017-10-09T07:22:58.693Z,4396
2017-10-09T07:23:59.408Z,4396
2017-10-09T07:25:00.122Z,4492
2017-10-09T07:26:00.837Z,4708
2017-10-09T07:27:01.552Z,5036
2017-10-09T07:28:02.269Z,5928
2017-10-09T07:29:02.986Z,6752
2017-10-09T07:30:03.716Z,7756
2017-10-09T07:31:04.430Z,7880
2017-10-09T07:32:05.146Z,8532
2017-10-09T07:33:05.863Z,8928
2017-10-09T07:34:06.581Z,8388
2017-10-09T07:35:07.294Z,7924
2017-10-09T07:36:08.009Z,7772
2017-10-09T07:37:08.725Z,8204
2017-10-09T07:38:09.444Z,8276
2017-10-09T07:39:10.173Z,8260
2017-10-09T07:40:10.886Z,7896
2017-10-09T07:41:11.602Z,7820
2017-10-09T07:42:12.318Z,10316
2017-10-09T07:43:13.037Z,10428
2017-10-09T07:44:13.751Z,8460
2017-10-09T07:45:14.469Z,10668
2017-10-09T07:46:15.198Z,8612
2017-10-09T07:47:15.915Z,7464
2017-10-09T07:48:16.633Z,6808
2017-10-09T07:49:17.349Z,6936
2017-10-09T07:50:18.069Z,7308
2017-10-09T07:51:18.786Z,8108
2017-10-09T07:52:19.503Z,8580
2017-10-09T07:53:20.221Z,8552
2017-10-09T07:54:20.938Z,8412
2017-10-09T07:55:21.654Z,8628
2017-10-09T07:56:22.371Z,9208
2017-10-09T07:57:23.089Z,9780
2017-10-09T07:58:23.819Z,9816
2017-10-09T07:59:24.550Z,9896
2017-10-09T08:00:25.270Z,10152
2017-10-09T08:01:25.988Z,9568
2017-10-09T08:02:26.706Z,10008
2017-10-09T08:03:27.423Z,10252
2017-10-09T08:04:28.143Z,10236
2017-10-09T08:05:28.875Z,10648
2017-10-09T08:06:29.594Z,11004
2017-10-09T08:07:30.328Z,10964
2017-10-09T08:08:31.046Z,11248
2017-10-09T08:09:31.770Z,11756
2017-10-09T08:10:32.483Z,11528
2017-10-09T08:11:33.203Z,12076
2017-10-09T08:12:33.930Z,10048
2017-10-09T08:13:34.654Z,10200
2017-10-09T08:14:35.374Z,10292
2017-10-09T08:15:36.097Z,10016
2017-10-09T08:16:36.812Z,9080
2017-10-09T08:17:37.531Z,8068
2017-10-09T08:18:38.249Z,7756
2017-10-09T08:19:38.981Z,8100
2017-10-09T08:20:39.700Z,8624
2017-10-09T08:21:40.435Z,9092
2017-10-09T08:22:41.148Z,9348
2017-10-09T08:23:41.879Z,9972
2017-10-09T08:24:42.598Z,10932
2017-10-09T08:25:43.331Z,11108
2017-10-09T08:26:44.064Z,10336
2017-10-09T08:27:44.782Z,9980
2017-10-09T08:28:45.500Z,10516
2017-10-09T08:29:46.220Z,10640
2017-10-09T08:30:46.940Z,10064
2017-10-09T08:31:47.673Z,9096
2017-10-09T08:32:48.390Z,8052
2017-10-09T08:33:49.109Z,7380
2017-10-09T08:34:49.829Z,7144
2017-10-09T08:35:50.545Z,6980
2017-10-09T08:36:51.274Z,6984
2017-10-09T08:37:52.007Z,7284
2017-10-09T08:38:52.724Z,7776
2017-10-09T08:39:53.454Z,8032
2017-10-09T08:40:54.171Z,7984
2017-10-09T08:41:54.893Z,8076
2017-10-09T08:42:55.607Z,8324
2017-10-09T08:43:56.324Z,8136
2017-10-09T08:44:57.043Z,7820
2017-10-09T08:45:57.761Z,7632
2017-10-09T08:46:58.477Z,7892
2017-10-09T08:47:59.208Z,8160
2017-10-09T08:48:59.938Z,8064
2017-10-09T08:50:00.656Z,7948
2017-10-09T08:51:01.375Z,8792
2017-10-09T08:52:02.093Z,9364
2017-10-09T08:53:02.810Z,9460
2017-10-09T08:54:03.530Z,9412
2017-10-09T08:55:04.245Z,9084
2017-10-09T08:56:04.978Z,8528
2017-10-09T08:57:05.709Z,7940
2017-10-09T08:58:06.427Z,7352
2017-10-09T08:59:07.144Z,6560
2017-10-09T09:00:07.863Z,6632
2017-10-09T09:01:08.582Z,7000
2017-10-09T09:02:09.299Z,6872
2017-10-09T09:03:10.018Z,7404
2017-10-09T09:04:10.736Z,7908
2017-10-09T09:05:11.464Z,8252
2017-10-09T09:06:12.181Z,7912
2017-10-09T09:07:12.899Z,7592
2017-10-09T09:08:13.632Z,7780
2017-10-09T09:09:14.350Z,8040
2017-10-09T09:10:15.067Z,7932
2017-10-09T09:11:15.784Z,8276
2017-10-09T09:12:16.507Z,8480
2017-10-09T09:13:17.237Z,8880
2017-10-09T09:14:17.956Z,9340
2017-10-09T09:15:18.676Z,9740
2017-10-09T09:16:19.389Z,9692
2017-10-09T09:17:20.122Z,9940
2017-10-09T09:18:20.841Z,10508
2017-10-09T09:19:21.566Z,10284
2017-10-09T09:20:22.279Z,9480
2017-10-09T09:21:23.015Z,8976
2017-10-09T09:22:23.741Z,8808
2017-10-09T09:23:24.458Z,9000
2017-10-09T09:24:25.180Z,9312
2017-10-09T09:25:25.899Z,9704
2017-10-09T09:26:26.617Z,10376
2017-10-09T09:27:27.350Z,10720
2017-10-09T09:28:28.071Z,11176
2017-10-09T09:29:28.803Z,11900
2017-10-09T09:30:29.522Z,12504
2017-10-09T09:31:30.257Z,12496
2017-10-09T09:32:30.975Z,12264
2017-10-09T09:33:31.695Z,12852
2017-10-09T09:34:32.414Z,14304
2017-10-09T09:35:33.136Z,15504
2017-10-09T09:36:33.857Z,16232
2017-10-09T09:37:34.574Z,17248
2017-10-09T09:38:35.295Z,17600
2017-10-09T09:39:36.016Z,16576
2017-10-09T09:40:36.752Z,16736
2017-10-09T09:41:37.489Z,16212
2017-10-09T09:42:38.209Z,18720
2017-10-09T09:43:38.927Z,24128
2017-10-09T09:44:39.647Z,30560
2017-10-09T09:45:40.383Z,39072
2017-10-09T09:46:41.107Z,39008
2017-10-09T09:47:41.844Z,42112
2017-10-09T09:48:42.570Z,44128
2017-10-09T09:49:43.293Z,28256
2017-10-09T09:50:44.017Z,21184
2017-10-09T09:51:44.738Z,23616
2017-10-09T09:52:45.464Z,27872
2017-10-09T09:53:46.187Z,22176
2017-10-09T09:54:46.913Z,22400
2017-10-09T09:55:47.636Z,23456
2017-10-09T09:56:48.361Z,25312
2017-10-09T09:57:49.085Z,22496
2017-10-09T09:58:49.822Z,21856
2017-10-09T09:59:50.545Z,17280
2017-10-09T10:00:51.279Z,12376
2017-10-09T10:01:52.002Z,12396
2017-10-09T10:02:52.727Z,11452
2017-10-09T10:03:53.449Z,12180
2017-10-09T10:04:54.183Z,10516
2017-10-09T10:05:54.905Z,10108
2017-10-09T10:06:55.641Z,8184
2017-10-09T10:07:56.377Z,9304
2017-10-09T10:08:57.099Z,9900
2017-10-09T10:09:57.821Z,10680
2017-10-09T10:10:58.543Z,10500
2017-10-09T10:11:59.266Z,10856
2017-10-09T10:12:59.988Z,11012
2017-10-09T10:14:00.713Z,10136
2017-10-09T10:15:01.433Z,10004
2017-10-09T10:16:02.155Z,10288
2017-10-09T10:17:02.877Z,10560
2017-10-09T10:18:03.610Z,11092
2017-10-09T10:19:04.344Z,11804
2017-10-09T10:20:05.063Z,12320
2017-10-09T10:21:05.784Z,12240
2017-10-09T10:22:06.509Z,12324
2017-10-09T10:23:07.229Z,12784
2017-10-09T10:24:07.962Z,12676
2017-10-09T10:25:08.683Z,12588
2017-10-09T10:26:09.417Z,12752
2017-10-09T10:27:10.152Z,12436
2017-10-09T10:28:10.885Z,11904
2017-10-09T10:29:11.620Z,11416
2017-10-09T10:30:12.340Z,11084
2017-10-09T10:31:13.060Z,10752
2017-10-09T10:32:13.780Z,10648
2017-10-09T10:33:14.502Z,10416
2017-10-09T10:34:15.225Z,10340
2017-10-09T10:35:15.958Z,10060
2017-10-09T10:36:16.678Z,10304
2017-10-09T10:37:17.401Z,9116
2017-10-09T10:38:18.120Z,9760
2017-10-09T10:39:18.840Z,10504
2017-10-09T10:40:19.559Z,10360
2017-10-09T10:41:20.280Z,10840
2017-10-09T10:42:21.002Z,10272
2017-10-09T10:43:21.724Z,10492
2017-10-09T10:44:22.457Z,12016
2017-10-09T10:45:23.181Z,12372
2017-10-09T10:46:23.914Z,11496
2017-10-09T10:47:24.634Z,9128
2017-10-09T10:48:25.354Z,8408
2017-10-09T10:49:26.075Z,10428
2017-10-09T10:50:26.796Z,11112
2017-10-09T10:51:27.517Z,12848
2017-10-09T10:52:28.236Z,14592
2017-10-09T10:53:28.959Z,13852
2017-10-09T10:54:29.677Z,12620
2017-10-09T10:55:30.398Z,11664
2017-10-09T10:56:31.119Z,12580
2017-10-09T10:57:31.843Z,13852
2017-10-09T10:58:32.563Z,16228
2017-10-09T10:59:33.286Z,19104
2017-10-09T11:00:34.009Z,21216
2017-10-09T11:01:34.730Z,24352
2017-10-09T11:02:35.465Z,24480
2017-10-09T11:03:36.187Z,25472
2017-10-09T11:04:36.911Z,22464
2017-10-09T11:05:37.631Z,21088
2017-10-09T11:06:38.351Z,21632
2017-10-09T11:07:39.075Z,20960
2017-10-09T11:08:39.798Z,20448
2017-10-09T11:09:40.533Z,19776
2017-10-09T11:10:41.258Z,19584
2017-10-09T11:11:41.979Z,21056
2017-10-09T11:12:42.719Z,19040
2017-10-09T11:13:43.439Z,18880
2017-10-09T11:14:44.162Z,18848
2017-10-09T11:15:44.883Z,18080
2017-10-09T11:16:45.608Z,16136
2017-10-09T11:17:46.329Z,15092
2017-10-09T11:18:47.053Z,14808
2017-10-09T11:19:47.780Z,14060
2017-10-09T11:20:48.497Z,13704
2017-10-09T11:21:49.220Z,12784
2017-10-09T11:22:49.943Z,12652
2017-10-09T11:23:50.664Z,12420
2017-10-09T11:24:51.386Z,12184
2017-10-09T11:25:52.110Z,12204
2017-10-09T11:26:52.832Z,12396
2017-10-09T11:27:53.553Z,12312
2017-10-09T11:28:54.276Z,11976
2017-10-09T11:29:54.997Z,11752
2017-10-09T11:30:55.720Z,13156
2017-10-09T11:31:56.456Z,14008
2017-10-09T11:32:57.179Z,14724
2017-10-09T11:33:57.901Z,14712
2017-10-09T11:34:58.638Z,14024
2017-10-09T11:35:59.361Z,13272
2017-10-09T11:37:00.089Z,15184
2017-10-09T11:38:00.805Z,14704
2017-10-09T11:39:01.530Z,11636
2017-10-09T11:40:02.255Z,11288
2017-10-09T11:41:02.976Z,12464
2017-10-09T11:42:03.697Z,11732
2017-10-09T11:43:04.422Z,16004
2017-10-09T11:44:05.146Z,21856
2017-10-09T11:45:05.869Z,18048
2017-10-09T11:46:06.591Z,15476
2017-10-09T11:47:07.327Z,14536
2017-10-09T11:48:08.050Z,13604
2017-10-09T11:49:08.774Z,13876
2017-10-09T11:50:09.498Z,15212
2017-10-09T11:51:10.221Z,16608
2017-10-09T11:52:10.943Z,18112
2017-10-09T11:53:11.668Z,19072
2017-10-09T11:54:12.391Z,19488
2017-10-09T11:55:13.117Z,18400
2017-10-09T11:56:13.852Z,18560
2017-10-09T11:57:14.575Z,17024
2017-10-09T11:58:15.301Z,16640
2017-10-09T11:59:16.023Z,15844
2017-10-09T12:00:16.747Z,15304
2017-10-09T12:01:17.471Z,14580
2017-10-09T12:02:18.194Z,12772
2017-10-09T12:03:18.918Z,12804
2017-10-09T12:04:19.641Z,13356
2017-10-09T12:05:20.376Z,13436
2017-10-09T12:06:21.100Z,13652
2017-10-09T12:07:21.824Z,15024
2017-10-09T12:08:22.563Z,14856
2017-10-09T12:09:23.284Z,15744
2017-10-09T12:10:24.007Z,18112
2017-10-09T12:11:24.730Z,16800
2017-10-09T12:12:25.452Z,13360
2017-10-09T12:13:26.188Z,10240
2017-10-09T12:14:26.911Z,10256
2017-10-09T12:15:27.636Z,10172
2017-10-09T12:16:28.356Z,10492
2017-10-09T12:17:29.091Z,9764
2017-10-09T12:18:29.814Z,10156
2017-10-09T12:19:30.539Z,10084
2017-10-09T12:20:31.274Z,9576
2017-10-09T12:21:31.997Z,9384
2017-10-09T12:22:32.736Z,9360
2017-10-09T12:23:33.467Z,8944
2017-10-09T12:24:34.188Z,8768
2017-10-09T12:25:34.914Z,8456
2017-10-09T12:26:35.645Z,8492
2017-10-09T12:27:36.366Z,8180
2017-10-09T12:28:37.089Z,8020
2017-10-09T12:29:37.810Z,7940
2017-10-09T12:30:38.544Z,8052
2017-10-09T12:31:39.264Z,7800
2017-10-09T12:32:39.987Z,7684
2017-10-09T12:33:40.707Z,8088
2017-10-09T12:34:41.427Z,8220
2017-10-09T12:35:42.148Z,7680
2017-10-09T12:36:42.869Z,7512
2017-10-09T12:37:43.595Z,7020
2017-10-09T12:38:44.312Z,6828
2017-10-09T12:39:45.044Z,7296
2017-10-09T12:40:45.763Z,7352
2017-10-09T12:41:46.486Z,7368
2017-10-09T12:42:47.206Z,7180
2017-10-09T12:43:47.926Z,7056
2017-10-09T12:44:48.648Z,7188
2017-10-09T12:45:49.366Z,6544
2017-10-09T12:46:50.088Z,5548
2017-10-09T12:47:50.807Z,5312
2017-10-09T12:48:51.528Z,4984
2017-10-09T12:49:52.248Z,5068
2017-10-09T12:50:52.982Z,4704
2017-10-09T12:51:53.706Z,4704
2017-10-09T12:52:54.435Z,5380
2017-10-09T12:53:55.156Z,5692
2017-10-09T12:54:55.876Z,5844
2017-10-09T12:55:56.594Z,7012
2017-10-09T12:56:57.313Z,8404
2017-10-09T12:57:58.033Z,9496
2017-10-09T12:58:58.769Z,11984
2017-10-09T12:59:59.490Z,14292
2017-10-09T13:01:00.211Z,15544
2017-10-09T13:02:00.935Z,17184
2017-10-09T13:03:01.656Z,20640
2017-10-09T13:04:02.378Z,17664
2017-10-09T13:05:03.101Z,19904
2017-10-09T13:06:03.822Z,26656
2017-10-09T13:07:04.547Z,35872
2017-10-09T13:08:05.270Z,19168
2017-10-09T13:09:05.995Z,13328
2017-10-09T13:10:06.716Z,14876
2017-10-09T13:11:07.454Z,19296
2017-10-09T13:12:08.177Z,17056
2017-10-09T13:13:08.902Z,14296
2017-10-09T13:14:09.626Z,10932
2017-10-09T13:15:10.350Z,10148
2017-10-09T13:16:11.073Z,14492
2017-10-09T13:17:11.796Z,24576
2017-10-09T13:18:12.518Z,16832
2017-10-09T13:19:13.243Z,15400
2017-10-09T13:20:13.978Z,14536
2017-10-09T13:21:14.701Z,13960
2017-10-09T13:22:15.425Z,14636
2017-10-09T13:23:16.150Z,14872
2017-10-09T13:24:16.879Z,14948
2017-10-09T13:25:17.596Z,13772
2017-10-09T13:26:18.319Z,12328
2017-10-09T13:27:19.045Z,12488
2017-10-09T13:28:19.767Z,12472
2017-10-09T13:29:20.490Z,11424
2017-10-09T13:30:21.233Z,12316
2017-10-09T13:31:21.964Z,11668
2017-10-09T13:32:22.702Z,11012
2017-10-09T13:33:23.424Z,11508
2017-10-09T13:34:24.148Z,11308
2017-10-09T13:35:24.869Z,10624
2017-10-09T13:36:25.592Z,10072
2017-10-09T13:37:26.315Z,9112
2017-10-09T13:38:27.037Z,8576
2017-10-09T13:39:27.758Z,8036
2017-10-09T13:40:28.481Z,7580
2017-10-09T13:41:29.203Z,7056
2017-10-09T13:42:29.926Z,6732
2017-10-09T13:43:30.658Z,6828
2017-10-09T13:44:31.379Z,7328
2017-10-09T13:45:32.101Z,8608
2017-10-09T13:46:32.821Z,8664
2017-10-09T13:47:33.555Z,8700
2017-10-09T13:48:34.279Z,8060
2017-10-09T13:49:35.001Z,7240
2017-10-09T13:50:35.722Z,6672
2017-10-09T13:51:36.443Z,6236
2017-10-09T13:52:37.166Z,5748
2017-10-09T13:53:37.884Z,5380
2017-10-09T13:54:38.606Z,4936